Aviation Digital Data Service (ADDS)

Output produced by METARs form (0020 UTC 19 August 2019)
found at http://www.aviationweather.gov/metar/data/
 
Forecast for: OIII (TEHRAN/MEHRABAD , IR)
Text: TAF OIII 182310Z 1900/2006 33008KT 8000 NSC
Forecast period: 0000 UTC 19 August 2019 to 0600 UTC 20 August 2019
Forecast type: FROM: standard forecast or significant change
Winds: from the NNW (330 degrees) at 9 MPH (8 knots; 4.1 m/s)
Visibility: 5 miles (8 km)
Ceiling: unknown
Clouds: missing
Weather: no significant weather forecast for this period